sensor_id;sensor_type;location;lat;lon;timestamp;temperature;humidity
18335;DHT22;9293;49.524;10.964;2022-11-15T00:02:23;4.60;99.90
18335;DHT22;9293;49.524;10.964;2022-11-15T00:05:09;4.70;99.90
18335;DHT22;9293;49.524;10.964;2022-11-15T00:07:56;4.70;99.90
18335;DHT22;9293;49.524;10.964;2022-11-15T00:10:53;4.60;99.90
18335;DHT22;9293;49.524;10.964;2022-11-15T00:13:40;4.50;99.90
18335;DHT22;9293;49.524;10.964;2022-11-15T00:16:29;4.60;99.90
18335;DHT22;9293;49.524;10.964;2022-11-15T00:19:16;4.50;99.90
18335;DHT22;9293;49.524;10.964;2022-11-15T00:22:02;4.50;99.90
18335;DHT22;9293;49.524;10.964;2022-11-15T00:24:49;4.60;99.90
18335;DHT22;9293;49.524;10.964;2022-11-15T00:27:36;4.50;99.90
18335;DHT22;9293;49.524;10.964;2022-11-15T00:30:22;4.50;99.90
18335;DHT22;9293;49.524;10.964;2022-11-15T00:33:09;4.50;99.90
18335;DHT22;9293;49.524;10.964;2022-11-15T00:36:06;4.40;99.90
18335;DHT22;9293;49.524;10.964;2022-11-15T00:38:54;4.40;99.90
18335;DHT22;9293;49.524;10.964;2022-11-15T00:41:41;4.40;99.90
18335;DHT22;9293;49.524;10.964;2022-11-15T00:44:28;4.40;99.90
18335;DHT22;9293;49.524;10.964;2022-11-15T00:47:14;4.40;99.90
18335;DHT22;9293;49.524;10.964;2022-11-15T00:50:01;4.40;99.90
18335;DHT22;9293;49.524;10.964;2022-11-15T00:52:48;4.40;99.90
18335;DHT22;9293;49.524;10.964;2022-11-15T00:55:37;4.30;99.90
18335;DHT22;9293;49.524;10.964;2022-11-15T00:58:24;4.30;99.90
18335;DHT22;9293;49.524;10.964;2022-11-15T01:01:12;4.30;99.90
18335;DHT22;9293;49.524;10.964;2022-11-15T01:03:59;4.20;99.90
18335;DHT22;9293;49.524;10.964;2022-11-15T01:06:46;4.20;99.90
18335;DHT22;9293;49.524;10.964;2022-11-15T01:09:32;4.20;99.90
18335;DHT22;9293;49.524;10.964;2022-11-15T01:12:19;4.20;99.90
18335;DHT22;9293;49.524;10.964;2022-11-15T01:15:05;4.20;99.90
18335;DHT22;9293;49.524;10.964;2022-11-15T01:17:52;4.20;99.90
18335;DHT22;9293;49.524;10.964;2022-11-15T01:20:42;4.20;99.90
18335;DHT22;9293;49.524;10.964;2022-11-15T01:23:29;4.20;99.90
18335;DHT22;9293;49.524;10.964;2022-11-15T01:26:16;4.20;99.90
18335;DHT22;9293;49.524;10.964;2022-11-15T01:29:02;4.30;99.90
18335;DHT22;9293;49.524;10.964;2022-11-15T01:31:49;4.30;99.90
18335;DHT22;9293;49.524;10.964;2022-11-15T01:34:35;4.30;99.90
18335;DHT22;9293;49.524;10.964;2022-11-15T01:37:22;4.30;99.90
18335;DHT22;9293;49.524;10.964;2022-11-15T01:40:09;4.30;99.90
18335;DHT22;9293;49.524;10.964;2022-11-15T01:42:55;4.30;99.90
18335;DHT22;9293;49.524;10.964;2022-11-15T01:45:42;4.30;99.90
18335;DHT22;9293;49.524;10.964;2022-11-15T01:48:33;4.30;99.90
18335;DHT22;9293;49.524;10.964;2022-11-15T01:51:23;4.30;99.90
18335;DHT22;9293;49.524;10.964;2022-11-15T01:54:14;4.30;99.90
18335;DHT22;9293;49.524;10.964;2022-11-15T01:57:08;4.40;99.90
18335;DHT22;9293;49.524;10.964;2022-11-15T01:59:55;4.30;99.90
18335;DHT22;9293;49.524;10.964;2022-11-15T02:02:42;4.30;99.90
18335;DHT22;9293;49.524;10.964;2022-11-15T02:05:30;4.20;99.90
18335;DHT22;9293;49.524;10.964;2022-11-15T02:08:17;4.20;99.90
18335;DHT22;9293;49.524;10.964;2022-11-15T02:11:09;4.20;99.90
18335;DHT22;9293;49.524;10.964;2022-11-15T02:13:57;4.10;99.90
18335;DHT22;9293;49.524;10.964;2022-11-15T02:26:20;4.10;99.90
18335;DHT22;9293;49.524;10.964;2022-11-15T02:32:54;4.20;99.90
18335;DHT22;9293;49.524;10.964;2022-11-15T02:35:49;4.20;99.90
18335;DHT22;9293;49.524;10.964;2022-11-15T02:44:35;4.00;99.90
18335;DHT22;9293;49.524;10.964;2022-11-15T02:47:27;4.00;99.90
18335;DHT22;9293;49.524;10.964;2022-11-15T02:50:20;3.90;99.90
18335;DHT22;9293;49.524;10.964;2022-11-15T02:53:10;3.90;99.90
18335;DHT22;9293;49.524;10.964;2022-11-15T02:56:00;3.90;99.90
18335;DHT22;9293;49.524;10.964;2022-11-15T02:59:09;3.90;99.90
18335;DHT22;9293;49.524;10.964;2022-11-15T03:11:27;3.80;99.90
18335;DHT22;9293;49.524;10.964;2022-11-15T03:14:24;3.70;99.90
18335;DHT22;9293;49.524;10.964;2022-11-15T03:17:13;3.70;99.90
18335;DHT22;9293;49.524;10.964;2022-11-15T03:20:04;3.70;99.90
18335;DHT22;9293;49.524;10.964;2022-11-15T03:22:54;3.70;99.90
18335;DHT22;9293;49.524;10.964;2022-11-15T03:25:44;3.70;99.90
18335;DHT22;9293;49.524;10.964;2022-11-15T03:29:32;3.80;99.90
18335;DHT22;9293;49.524;10.964;2022-11-15T03:32:23;3.80;99.90
18335;DHT22;9293;49.524;10.964;2022-11-15T03:35:24;3.70;99.90
18335;DHT22;9293;49.524;10.964;2022-11-15T03:38:24;3.70;99.90
18335;DHT22;9293;49.524;10.964;2022-11-15T03:41:39;3.70;99.90
18335;DHT22;9293;49.524;10.964;2022-11-15T03:44:42;3.60;99.90
18335;DHT22;9293;49.524;10.964;2022-11-15T03:47:35;3.50;99.90
18335;DHT22;9293;49.524;10.964;2022-11-15T03:50:24;3.50;99.90
18335;DHT22;9293;49.524;10.964;2022-11-15T03:53:11;3.50;99.90
18335;DHT22;9293;49.524;10.964;2022-11-15T03:56:02;3.50;99.90
18335;DHT22;9293;49.524;10.964;2022-11-15T03:58:49;3.50;99.90
18335;DHT22;9293;49.524;10.964;2022-11-15T04:01:36;3.50;99.90
18335;DHT22;9293;49.524;10.964;2022-11-15T04:04:22;3.40;99.90
18335;DHT22;9293;49.524;10.964;2022-11-15T04:07:09;3.50;99.90
18335;DHT22;9293;49.524;10.964;2022-11-15T04:09:56;3.60;99.90
18335;DHT22;9293;49.524;10.964;2022-11-15T04:12:48;3.60;99.90
18335;DHT22;9293;49.524;10.964;2022-11-15T04:15:35;3.60;99.90
18335;DHT22;9293;49.524;10.964;2022-11-15T04:18:21;3.60;99.90
18335;DHT22;9293;49.524;10.964;2022-11-15T04:21:08;3.60;99.90
18335;DHT22;9293;49.524;10.964;2022-11-15T04:24:14;3.60;99.90
18335;DHT22;9293;49.524;10.964;2022-11-15T04:27:00;3.40;99.90
18335;DHT22;9293;49.524;10.964;2022-11-15T04:29:47;3.40;99.90
18335;DHT22;9293;49.524;10.964;2022-11-15T04:32:33;3.40;99.90
18335;DHT22;9293;49.524;10.964;2022-11-15T04:35:20;3.40;99.90
18335;DHT22;9293;49.524;10.964;2022-11-15T04:38:08;3.40;99.90
18335;DHT22;9293;49.524;10.964;2022-11-15T04:40:55;3.40;99.90
18335;DHT22;9293;49.524;10.964;2022-11-15T04:43:42;3.40;99.90
18335;DHT22;9293;49.524;10.964;2022-11-15T04:46:28;3.40;99.90
18335;DHT22;9293;49.524;10.964;2022-11-15T04:49:15;3.40;99.90
18335;DHT22;9293;49.524;10.964;2022-11-15T04:52:03;3.40;99.90
18335;DHT22;9293;49.524;10.964;2022-11-15T04:54:49;3.40;99.90
18335;DHT22;9293;49.524;10.964;2022-11-15T04:57:37;3.40;99.90
18335;DHT22;9293;49.524;10.964;2022-11-15T05:00:23;3.30;99.90
18335;DHT22;9293;49.524;10.964;2022-11-15T05:03:10;3.30;99.90
18335;DHT22;9293;49.524;10.964;2022-11-15T05:06:16;3.30;99.90
18335;DHT22;9293;49.524;10.964;2022-11-15T05:09:02;3.20;99.90
18335;DHT22;9293;49.524;10.964;2022-11-15T05:11:49;3.20;99.90
18335;DHT22;9293;49.524;10.964;2022-11-15T05:14:35;3.20;99.90
18335;DHT22;9293;49.524;10.964;2022-11-15T05:17:22;3.20;99.90
18335;DHT22;9293;49.524;10.964;2022-11-15T05:20:10;3.30;99.90
18335;DHT22;9293;49.524;10.964;2022-11-15T05:22:57;3.30;99.90
18335;DHT22;9293;49.524;10.964;2022-11-15T05:25:44;3.20;99.90
18335;DHT22;9293;49.524;10.964;2022-11-15T05:28:31;3.10;99.90
18335;DHT22;9293;49.524;10.964;2022-11-15T05:31:21;3.20;99.90
18335;DHT22;9293;49.524;10.964;2022-11-15T05:34:08;3.20;99.90
18335;DHT22;9293;49.524;10.964;2022-11-15T05:36:54;3.20;99.90
18335;DHT22;9293;49.524;10.964;2022-11-15T05:39:42;3.20;99.90
18335;DHT22;9293;49.524;10.964;2022-11-15T05:42:31;3.30;99.90
18335;DHT22;9293;49.524;10.964;2022-11-15T05:45:18;3.20;99.90
18335;DHT22;9293;49.524;10.964;2022-11-15T05:48:11;3.20;99.90
18335;DHT22;9293;49.524;10.964;2022-11-15T05:50:58;3.20;99.90
18335;DHT22;9293;49.524;10.964;2022-11-15T05:53:45;3.20;99.90
18335;DHT22;9293;49.524;10.964;2022-11-15T05:56:32;3.20;99.90
18335;DHT22;9293;49.524;10.964;2022-11-15T05:59:20;3.30;99.90
18335;DHT22;9293;49.524;10.964;2022-11-15T06:02:06;3.30;99.90
18335;DHT22;9293;49.524;10.964;2022-11-15T06:04:53;3.20;99.90
18335;DHT22;9293;49.524;10.964;2022-11-15T06:07:40;3.20;99.90
18335;DHT22;9293;49.524;10.964;2022-11-15T06:10:27;3.10;99.90
18335;DHT22;9293;49.524;10.964;2022-11-15T06:13:14;3.10;99.90
18335;DHT22;9293;49.524;10.964;2022-11-15T06:16:01;3.00;99.90
18335;DHT22;9293;49.524;10.964;2022-11-15T06:18:48;3.00;99.90
18335;DHT22;9293;49.524;10.964;2022-11-15T06:21:34;3.00;99.90
18335;DHT22;9293;49.524;10.964;2022-11-15T06:24:30;3.00;99.90
18335;DHT22;9293;49.524;10.964;2022-11-15T06:27:16;3.00;99.90
18335;DHT22;9293;49.524;10.964;2022-11-15T06:30:07;3.00;99.90
18335;DHT22;9293;49.524;10.964;2022-11-15T06:33:04;2.90;99.90
18335;DHT22;9293;49.524;10.964;2022-11-15T06:35:50;2.90;99.90
18335;DHT22;9293;49.524;10.964;2022-11-15T06:38:37;2.90;99.90
18335;DHT22;9293;49.524;10.964;2022-11-15T06:41:24;3.00;99.90
18335;DHT22;9293;49.524;10.964;2022-11-15T06:44:11;3.00;99.90
18335;DHT22;9293;49.524;10.964;2022-11-15T06:46:58;3.00;99.90
18335;DHT22;9293;49.524;10.964;2022-11-15T06:49:44;3.00;99.90
18335;DHT22;9293;49.524;10.964;2022-11-15T06:52:32;3.10;99.90
18335;DHT22;9293;49.524;10.964;2022-11-15T06:55:19;3.20;99.90
18335;DHT22;9293;49.524;10.964;2022-11-15T06:58:05;3.30;99.90
18335;DHT22;9293;49.524;10.964;2022-11-15T07:00:52;3.20;99.90
18335;DHT22;9293;49.524;10.964;2022-11-15T07:03:40;3.20;99.90
18335;DHT22;9293;49.524;10.964;2022-11-15T07:06:31;3.20;99.90
18335;DHT22;9293;49.524;10.964;2022-11-15T07:09:17;3.20;99.90
18335;DHT22;9293;49.524;10.964;2022-11-15T07:12:04;3.30;99.90
18335;DHT22;9293;49.524;10.964;2022-11-15T07:14:52;3.40;99.90
18335;DHT22;9293;49.524;10.964;2022-11-15T07:17:39;3.40;99.90
18335;DHT22;9293;49.524;10.964;2022-11-15T07:20:25;3.50;99.90
18335;DHT22;9293;49.524;10.964;2022-11-15T07:23:12;3.60;99.90
18335;DHT22;9293;49.524;10.964;2022-11-15T07:26:02;3.50;99.90
18335;DHT22;9293;49.524;10.964;2022-11-15T07:28:54;3.60;99.90
18335;DHT22;9293;49.524;10.964;2022-11-15T07:31:43;4.10;99.90
18335;DHT22;9293;49.524;10.964;2022-11-15T07:34:29;4.60;99.90
18335;DHT22;9293;49.524;10.964;2022-11-15T07:37:16;5.10;99.90
18335;DHT22;9293;49.524;10.964;2022-11-15T07:40:03;5.60;99.90
18335;DHT22;9293;49.524;10.964;2022-11-15T07:42:50;6.10;99.90
18335;DHT22;9293;49.524;10.964;2022-11-15T07:45:43;7.00;99.90
18335;DHT22;9293;49.524;10.964;2022-11-15T07:48:30;7.70;99.90
18335;DHT22;9293;49.524;10.964;2022-11-15T07:51:28;8.30;99.90
18335;DHT22;9293;49.524;10.964;2022-11-15T07:54:14;8.40;99.90
18335;DHT22;9293;49.524;10.964;2022-11-15T07:57:01;8.90;99.90
18335;DHT22;9293;49.524;10.964;2022-11-15T07:59:51;8.40;99.90
18335;DHT22;9293;49.524;10.964;2022-11-15T08:02:38;7.80;99.90
18335;DHT22;9293;49.524;10.964;2022-11-15T08:05:25;7.30;99.90
18335;DHT22;9293;49.524;10.964;2022-11-15T08:08:11;6.90;99.90
18335;DHT22;9293;49.524;10.964;2022-11-15T08:10:58;6.90;99.90
18335;DHT22;9293;49.524;10.964;2022-11-15T08:13:45;7.10;99.90
18335;DHT22;9293;49.524;10.964;2022-11-15T08:16:31;7.30;99.90
18335;DHT22;9293;49.524;10.964;2022-11-15T08:19:20;7.50;99.90
18335;DHT22;9293;49.524;10.964;2022-11-15T08:22:07;7.60;99.90
18335;DHT22;9293;49.524;10.964;2022-11-15T08:24:54;7.70;99.90
18335;DHT22;9293;49.524;10.964;2022-11-15T08:27:40;7.70;99.90
18335;DHT22;9293;49.524;10.964;2022-11-15T08:30:27;7.60;99.90
18335;DHT22;9293;49.524;10.964;2022-11-15T08:33:14;7.50;99.90
18335;DHT22;9293;49.524;10.964;2022-11-15T08:36:00;7.60;99.90
18335;DHT22;9293;49.524;10.964;2022-11-15T08:38:47;7.80;99.90
18335;DHT22;9293;49.524;10.964;2022-11-15T08:41:37;7.90;99.90
18335;DHT22;9293;49.524;10.964;2022-11-15T08:44:24;8.00;99.90
18335;DHT22;9293;49.524;10.964;2022-11-15T08:47:16;8.10;99.90
18335;DHT22;9293;49.524;10.964;2022-11-15T08:50:03;8.30;99.90
18335;DHT22;9293;49.524;10.964;2022-11-15T08:52:49;8.40;99.90
18335;DHT22;9293;49.524;10.964;2022-11-15T08:55:37;8.50;99.90
18335;DHT22;9293;49.524;10.964;2022-11-15T08:58:24;8.40;99.90
18335;DHT22;9293;49.524;10.964;2022-11-15T09:01:18;8.50;99.90
18335;DHT22;9293;49.524;10.964;2022-11-15T09:04:05;8.60;99.90
18335;DHT22;9293;49.524;10.964;2022-11-15T09:06:55;8.80;99.90
18335;DHT22;9293;49.524;10.964;2022-11-15T09:09:43;8.90;99.90
18335;DHT22;9293;49.524;10.964;2022-11-15T09:12:29;9.00;99.90
18335;DHT22;9293;49.524;10.964;2022-11-15T09:15:15;9.10;99.90
18335;DHT22;9293;49.524;10.964;2022-11-15T09:18:02;9.30;99.90
18335;DHT22;9293;49.524;10.964;2022-11-15T09:20:49;9.40;99.90
18335;DHT22;9293;49.524;10.964;2022-11-15T09:23:35;9.50;99.90
18335;DHT22;9293;49.524;10.964;2022-11-15T09:26:24;9.60;99.90
18335;DHT22;9293;49.524;10.964;2022-11-15T09:29:10;9.60;99.90
18335;DHT22;9293;49.524;10.964;2022-11-15T09:31:57;9.70;99.90
18335;DHT22;9293;49.524;10.964;2022-11-15T09:34:43;9.70;99.90
18335;DHT22;9293;49.524;10.964;2022-11-15T09:37:31;9.80;99.90
18335;DHT22;9293;49.524;10.964;2022-11-15T09:40:19;9.90;99.90
18335;DHT22;9293;49.524;10.964;2022-11-15T09:47:02;10.00;99.90
18335;DHT22;9293;49.524;10.964;2022-11-15T09:49:59;10.00;99.90
18335;DHT22;9293;49.524;10.964;2022-11-15T09:52:34;10.10;99.90
18335;DHT22;9293;49.524;10.964;2022-11-15T09:55:02;10.20;99.90
18335;DHT22;9293;49.524;10.964;2022-11-15T09:57:38;10.30;99.90
18335;DHT22;9293;49.524;10.964;2022-11-15T10:03:27;10.50;99.90
18335;DHT22;9293;49.524;10.964;2022-11-15T10:06:01;10.70;99.90
18335;DHT22;9293;49.524;10.964;2022-11-15T10:11:22;11.00;99.90
18335;DHT22;9293;49.524;10.964;2022-11-15T10:14:14;11.10;99.90
18335;DHT22;9293;49.524;10.964;2022-11-15T10:17:06;11.20;99.90
18335;DHT22;9293;49.524;10.964;2022-11-15T10:22:44;11.40;99.90
18335;DHT22;9293;49.524;10.964;2022-11-15T10:25:22;11.60;99.90
18335;DHT22;9293;49.524;10.964;2022-11-15T10:28:14;11.70;99.90
18335;DHT22;9293;49.524;10.964;2022-11-15T10:30:45;11.80;99.90
18335;DHT22;9293;49.524;10.964;2022-11-15T10:41:19;12.10;99.90
18335;DHT22;9293;49.524;10.964;2022-11-15T10:46:35;12.30;99.90
18335;DHT22;9293;49.524;10.964;2022-11-15T10:49:24;12.30;99.90
18335;DHT22;9293;49.524;10.964;2022-11-15T10:52:19;12.40;99.90
18335;DHT22;9293;49.524;10.964;2022-11-15T10:54:52;12.50;99.90
18335;DHT22;9293;49.524;10.964;2022-11-15T10:57:33;12.60;99.90
18335;DHT22;9293;49.524;10.964;2022-11-15T11:00:48;12.70;99.90
18335;DHT22;9293;49.524;10.964;2022-11-15T11:02:57;12.70;99.90
18335;DHT22;9293;49.524;10.964;2022-11-15T11:06:02;12.80;99.90
18335;DHT22;9293;49.524;10.964;2022-11-15T11:08:30;12.80;99.90
18335;DHT22;9293;49.524;10.964;2022-11-15T11:11:01;12.90;99.90
18335;DHT22;9293;49.524;10.964;2022-11-15T11:13:30;13.00;99.90
18335;DHT22;9293;49.524;10.964;2022-11-15T11:19:25;13.10;99.90
18335;DHT22;9293;49.524;10.964;2022-11-15T11:22:09;13.20;99.90
18335;DHT22;9293;49.524;10.964;2022-11-15T11:24:56;13.20;99.90
18335;DHT22;9293;49.524;10.964;2022-11-15T11:30:02;13.30;99.90
18335;DHT22;9293;49.524;10.964;2022-11-15T11:32:47;13.40;99.90
18335;DHT22;9293;49.524;10.964;2022-11-15T11:41:16;13.80;99.90
18335;DHT22;9293;49.524;10.964;2022-11-15T11:47:10;14.10;99.90
18335;DHT22;9293;49.524;10.964;2022-11-15T11:49:47;14.20;99.90
18335;DHT22;9293;49.524;10.964;2022-11-15T11:55:34;14.10;99.90
18335;DHT22;9293;49.524;10.964;2022-11-15T11:58:16;14.20;99.90
18335;DHT22;9293;49.524;10.964;2022-11-15T12:01:26;14.30;99.90
18335;DHT22;9293;49.524;10.964;2022-11-15T12:04:09;14.40;99.90
18335;DHT22;9293;49.524;10.964;2022-11-15T12:07:01;14.40;99.90
18335;DHT22;9293;49.524;10.964;2022-11-15T12:09:51;14.50;99.90
18335;DHT22;9293;49.524;10.964;2022-11-15T12:12:39;14.50;99.90
18335;DHT22;9293;49.524;10.964;2022-11-15T12:17:38;14.60;99.90
18335;DHT22;9293;49.524;10.964;2022-11-15T12:20:21;14.60;99.90
18335;DHT22;9293;49.524;10.964;2022-11-15T12:25:31;14.50;99.90
18335;DHT22;9293;49.524;10.964;2022-11-15T12:28:37;14.50;99.90
18335;DHT22;9293;49.524;10.964;2022-11-15T12:31:47;14.50;99.90
18335;DHT22;9293;49.524;10.964;2022-11-15T12:36:50;14.50;99.90
18335;DHT22;9293;49.524;10.964;2022-11-15T12:39:19;14.50;99.90
18335;DHT22;9293;49.524;10.964;2022-11-15T12:52:08;14.70;99.90
18335;DHT22;9293;49.524;10.964;2022-11-15T13:07:58;14.70;99.90
18335;DHT22;9293;49.524;10.964;2022-11-15T13:10:34;14.70;99.90
18335;DHT22;9293;49.524;10.964;2022-11-15T13:13:09;14.60;99.90
18335;DHT22;9293;49.524;10.964;2022-11-15T13:15:53;14.60;99.90
18335;DHT22;9293;49.524;10.964;2022-11-15T13:18:37;14.60;99.90
18335;DHT22;9293;49.524;10.964;2022-11-15T13:21:23;14.50;99.90
18335;DHT22;9293;49.524;10.964;2022-11-15T13:24:17;14.50;99.90
18335;DHT22;9293;49.524;10.964;2022-11-15T13:26:45;14.50;99.90
18335;DHT22;9293;49.524;10.964;2022-11-15T13:29:18;14.40;99.90
18335;DHT22;9293;49.524;10.964;2022-11-15T13:31:47;14.40;99.90
18335;DHT22;9293;49.524;10.964;2022-11-15T13:34:25;14.40;99.90
18335;DHT22;9293;49.524;10.964;2022-11-15T13:39:49;14.40;99.90
18335;DHT22;9293;49.524;10.964;2022-11-15T13:42:18;14.40;99.90
18335;DHT22;9293;49.524;10.964;2022-11-15T13:45:01;14.30;99.90
18335;DHT22;9293;49.524;10.964;2022-11-15T13:47:29;14.40;99.90
18335;DHT22;9293;49.524;10.964;2022-11-15T13:49:59;14.50;99.90
18335;DHT22;9293;49.524;10.964;2022-11-15T13:52:45;14.60;99.90
18335;DHT22;9293;49.524;10.964;2022-11-15T13:55:43;14.70;99.90
18335;DHT22;9293;49.524;10.964;2022-11-15T13:58:28;14.70;99.90
18335;DHT22;9293;49.524;10.964;2022-11-15T14:01:05;14.80;99.90
18335;DHT22;9293;49.524;10.964;2022-11-15T14:03:46;14.90;99.90
18335;DHT22;9293;49.524;10.964;2022-11-15T14:06:19;14.80;99.90
18335;DHT22;9293;49.524;10.964;2022-11-15T14:11:48;14.80;99.90
18335;DHT22;9293;49.524;10.964;2022-11-15T14:14:23;14.80;99.90
18335;DHT22;9293;49.524;10.964;2022-11-15T14:16:56;14.70;99.90
18335;DHT22;9293;49.524;10.964;2022-11-15T14:22:22;14.50;99.90
18335;DHT22;9293;49.524;10.964;2022-11-15T14:27:38;14.30;99.90
18335;DHT22;9293;49.524;10.964;2022-11-15T14:30:13;14.10;99.90
18335;DHT22;9293;49.524;10.964;2022-11-15T14:32:49;14.00;99.90
18335;DHT22;9293;49.524;10.964;2022-11-15T14:35:22;14.00;99.90
18335;DHT22;9293;49.524;10.964;2022-11-15T14:37:51;13.90;99.90
18335;DHT22;9293;49.524;10.964;2022-11-15T14:40:21;13.90;99.90
18335;DHT22;9293;49.524;10.964;2022-11-15T14:42:50;13.80;99.90
18335;DHT22;9293;49.524;10.964;2022-11-15T14:45:20;13.70;99.90
18335;DHT22;9293;49.524;10.964;2022-11-15T14:47:49;13.70;99.90
18335;DHT22;9293;49.524;10.964;2022-11-15T14:50:19;13.50;99.90
18335;DHT22;9293;49.524;10.964;2022-11-15T14:52:48;13.50;99.90
18335;DHT22;9293;49.524;10.964;2022-11-15T14:55:24;13.40;99.90
18335;DHT22;9293;49.524;10.964;2022-11-15T14:57:52;13.30;99.90
18335;DHT22;9293;49.524;10.964;2022-11-15T15:00:21;13.20;99.90
18335;DHT22;9293;49.524;10.964;2022-11-15T15:02:55;13.00;99.90
18335;DHT22;9293;49.524;10.964;2022-11-15T15:05:34;12.80;99.90
18335;DHT22;9293;49.524;10.964;2022-11-15T15:08:03;12.70;99.90
18335;DHT22;9293;49.524;10.964;2022-11-15T15:10:38;12.50;99.90
18335;DHT22;9293;49.524;10.964;2022-11-15T15:13:19;12.30;99.90
18335;DHT22;9293;49.524;10.964;2022-11-15T15:15:49;12.20;99.90
18335;DHT22;9293;49.524;10.964;2022-11-15T15:18:18;12.00;99.90
18335;DHT22;9293;49.524;10.964;2022-11-15T15:21:00;11.80;99.90
18335;DHT22;9293;49.524;10.964;2022-11-15T15:23:34;11.70;99.90
18335;DHT22;9293;49.524;10.964;2022-11-15T15:26:03;11.50;99.90
18335;DHT22;9293;49.524;10.964;2022-11-15T15:28:31;11.40;99.90
18335;DHT22;9293;49.524;10.964;2022-11-15T15:31:01;11.30;99.90
18335;DHT22;9293;49.524;10.964;2022-11-15T15:33:29;11.00;99.90
18335;DHT22;9293;49.524;10.964;2022-11-15T15:36:02;10.70;99.90
18335;DHT22;9293;49.524;10.964;2022-11-15T15:38:34;10.50;99.90
18335;DHT22;9293;49.524;10.964;2022-11-15T15:41:02;10.50;99.90
18335;DHT22;9293;49.524;10.964;2022-11-15T15:43:31;10.40;99.90
18335;DHT22;9293;49.524;10.964;2022-11-15T15:45:59;10.20;99.90
18335;DHT22;9293;49.524;10.964;2022-11-15T15:48:27;10.20;99.90
18335;DHT22;9293;49.524;10.964;2022-11-15T15:50:57;10.20;99.90
18335;DHT22;9293;49.524;10.964;2022-11-15T15:53:26;10.10;99.90
18335;DHT22;9293;49.524;10.964;2022-11-15T15:55:54;10.10;99.90
18335;DHT22;9293;49.524;10.964;2022-11-15T15:58:23;10.00;99.90
18335;DHT22;9293;49.524;10.964;2022-11-15T16:00:51;10.00;99.90
18335;DHT22;9293;49.524;10.964;2022-11-15T16:03:20;9.90;99.90
18335;DHT22;9293;49.524;10.964;2022-11-15T16:05:50;9.80;99.90
18335;DHT22;9293;49.524;10.964;2022-11-15T16:08:23;9.80;99.90
18335;DHT22;9293;49.524;10.964;2022-11-15T16:10:52;9.80;99.90
18335;DHT22;9293;49.524;10.964;2022-11-15T16:13:20;9.80;99.90
18335;DHT22;9293;49.524;10.964;2022-11-15T16:15:52;9.80;99.90
18335;DHT22;9293;49.524;10.964;2022-11-15T16:18:21;9.70;99.90
18335;DHT22;9293;49.524;10.964;2022-11-15T16:20:49;9.60;99.90
18335;DHT22;9293;49.524;10.964;2022-11-15T16:23:19;9.60;99.90
18335;DHT22;9293;49.524;10.964;2022-11-15T16:25:51;9.60;99.90
18335;DHT22;9293;49.524;10.964;2022-11-15T16:28:31;9.50;99.90
18335;DHT22;9293;49.524;10.964;2022-11-15T16:31:20;9.50;99.90
18335;DHT22;9293;49.524;10.964;2022-11-15T16:34:01;9.40;99.90
18335;DHT22;9293;49.524;10.964;2022-11-15T16:36:40;9.50;99.90
18335;DHT22;9293;49.524;10.964;2022-11-15T16:39:23;9.50;99.90
18335;DHT22;9293;49.524;10.964;2022-11-15T16:42:26;9.50;99.90
18335;DHT22;9293;49.524;10.964;2022-11-15T16:44:55;9.40;99.90
18335;DHT22;9293;49.524;10.964;2022-11-15T16:47:23;9.30;99.90
18335;DHT22;9293;49.524;10.964;2022-11-15T16:49:51;9.30;99.90
18335;DHT22;9293;49.524;10.964;2022-11-15T16:52:19;9.30;99.90
18335;DHT22;9293;49.524;10.964;2022-11-15T16:54:48;9.30;99.90
18335;DHT22;9293;49.524;10.964;2022-11-15T16:57:16;9.30;99.90
18335;DHT22;9293;49.524;10.964;2022-11-15T16:59:44;9.30;99.90
18335;DHT22;9293;49.524;10.964;2022-11-15T17:02:13;9.40;99.90
18335;DHT22;9293;49.524;10.964;2022-11-15T17:04:41;9.40;99.90
18335;DHT22;9293;49.524;10.964;2022-11-15T17:07:09;9.30;99.90
18335;DHT22;9293;49.524;10.964;2022-11-15T17:09:37;9.40;99.90
18335;DHT22;9293;49.524;10.964;2022-11-15T17:12:06;9.40;99.90
18335;DHT22;9293;49.524;10.964;2022-11-15T17:14:35;9.40;99.90
18335;DHT22;9293;49.524;10.964;2022-11-15T17:17:03;9.30;99.90
18335;DHT22;9293;49.524;10.964;2022-11-15T17:19:31;9.20;99.90
18335;DHT22;9293;49.524;10.964;2022-11-15T17:21:59;9.20;99.90
18335;DHT22;9293;49.524;10.964;2022-11-15T17:24:27;9.20;99.90
18335;DHT22;9293;49.524;10.964;2022-11-15T17:26:56;9.20;99.90
18335;DHT22;9293;49.524;10.964;2022-11-15T17:29:27;9.20;99.90
18335;DHT22;9293;49.524;10.964;2022-11-15T17:31:56;9.10;99.90
18335;DHT22;9293;49.524;10.964;2022-11-15T17:34:28;9.10;99.90
18335;DHT22;9293;49.524;10.964;2022-11-15T17:36:56;9.10;99.90
18335;DHT22;9293;49.524;10.964;2022-11-15T17:39:24;9.10;99.90
18335;DHT22;9293;49.524;10.964;2022-11-15T17:41:53;9.10;99.90
18335;DHT22;9293;49.524;10.964;2022-11-15T17:44:21;9.20;99.90
18335;DHT22;9293;49.524;10.964;2022-11-15T17:46:49;9.20;99.90
18335;DHT22;9293;49.524;10.964;2022-11-15T17:49:17;9.20;99.90
18335;DHT22;9293;49.524;10.964;2022-11-15T17:51:46;9.30;99.90
18335;DHT22;9293;49.524;10.964;2022-11-15T17:54:15;9.30;99.90
18335;DHT22;9293;49.524;10.964;2022-11-15T17:56:44;9.30;99.90
18335;DHT22;9293;49.524;10.964;2022-11-15T17:59:12;9.40;99.90
18335;DHT22;9293;49.524;10.964;2022-11-15T18:01:48;9.40;99.90
18335;DHT22;9293;49.524;10.964;2022-11-15T18:04:18;9.40;99.90
18335;DHT22;9293;49.524;10.964;2022-11-15T18:06:46;9.40;99.90
18335;DHT22;9293;49.524;10.964;2022-11-15T18:09:15;9.40;99.90
18335;DHT22;9293;49.524;10.964;2022-11-15T18:11:43;9.40;99.90
18335;DHT22;9293;49.524;10.964;2022-11-15T18:14:14;9.30;99.90
18335;DHT22;9293;49.524;10.964;2022-11-15T18:16:42;9.30;99.90
18335;DHT22;9293;49.524;10.964;2022-11-15T18:19:11;9.20;99.90
18335;DHT22;9293;49.524;10.964;2022-11-15T18:21:44;9.20;99.90
18335;DHT22;9293;49.524;10.964;2022-11-15T18:24:33;9.20;99.90
18335;DHT22;9293;49.524;10.964;2022-11-15T18:27:03;9.20;99.90
18335;DHT22;9293;49.524;10.964;2022-11-15T18:29:32;9.20;99.90
18335;DHT22;9293;49.524;10.964;2022-11-15T18:32:03;9.30;99.90
18335;DHT22;9293;49.524;10.964;2022-11-15T18:34:38;9.30;99.90
18335;DHT22;9293;49.524;10.964;2022-11-15T18:37:06;9.40;99.90
18335;DHT22;9293;49.524;10.964;2022-11-15T18:39:35;9.40;99.90
18335;DHT22;9293;49.524;10.964;2022-11-15T18:42:03;9.30;99.90
18335;DHT22;9293;49.524;10.964;2022-11-15T18:44:31;9.20;99.90
18335;DHT22;9293;49.524;10.964;2022-11-15T18:47:00;9.20;99.90
18335;DHT22;9293;49.524;10.964;2022-11-15T18:49:28;9.20;99.90
18335;DHT22;9293;49.524;10.964;2022-11-15T18:51:57;9.20;99.90
18335;DHT22;9293;49.524;10.964;2022-11-15T18:54:28;9.20;99.90
18335;DHT22;9293;49.524;10.964;2022-11-15T18:57:00;9.10;99.90
18335;DHT22;9293;49.524;10.964;2022-11-15T18:59:29;9.10;99.90
18335;DHT22;9293;49.524;10.964;2022-11-15T19:01:57;9.10;99.90
18335;DHT22;9293;49.524;10.964;2022-11-15T19:04:25;9.10;99.90
18335;DHT22;9293;49.524;10.964;2022-11-15T19:06:53;9.00;99.90
18335;DHT22;9293;49.524;10.964;2022-11-15T19:09:22;9.00;99.90